»·PEaware :: N9258 KCMA-KSMX

N9258 :: KCMA-KSMX

FLIGHT INFORMATION

Flight Status: Arrived
Operator: Privately registered:
United States
More flights under this callsign
Pilot: EAA Chapter 723 (6570)
Aircraft: CESSNA 172 SKYHAWK
(C172)
More flights by this aircraft type
Origin: KCMA Camarillo
United States
Destination: KSMX Santa Maria Pub/Capt Hancock
United States
More flights between these airports :: More routes between these airports
Route: +V25 RZS RZS286 KOAKS
File this flight plan on PilotEdge
Remarks:
Altitude:
(Current/Filed)
0ft
Speed:
(Current/Filed)
0kts
Departed: 10-Oct-18 02:54 PM
Arrived: 10-Oct-18 04:19 PM
Distance/Time
Traveled:
79nm/1:25
Distance/Time
To Go:
Arrived

Flight Plot

Page will automatically refresh every two minutes.


Map Options




Map Legend


Flown Route
Filed Route
Departure Airport
Arrival Airport
Navaid (VOR, NDB)
Fix

Horizontal Profiles

Position Reports

Time Latitude Longitude Heading Altitude Ground
Speed
10-Oct-18 14:42 34.210705 -119.084686 14 78ft 0kts
10-Oct-18 14:43 34.210710 -119.084684 14 78ft 0kts
10-Oct-18 14:44 34.210715 -119.084683 13 78ft 0kts
10-Oct-18 14:45 34.210721 -119.084681 13 78ft 0kts
10-Oct-18 14:46 34.210726 -119.084679 13 78ft 0kts
10-Oct-18 14:47 34.210735 -119.084677 13 78ft 0kts
10-Oct-18 14:48 34.211412 -119.084595 2 78ft 6kts
10-Oct-18 14:49 34.211722 -119.084574 13 78ft 0kts
10-Oct-18 14:50 34.212107 -119.084475 349 78ft 0kts
10-Oct-18 14:51 34.212121 -119.084479 342 78ft 0kts
10-Oct-18 14:52 34.212141 -119.084488 338 78ft 0kts
10-Oct-18 14:53 34.212154 -119.084495 336 78ft 0kts
10-Oct-18 14:54 34.212496 -119.084612 354 78ft 0kts
10-Oct-18 14:55 34.213163 -119.084601 347 78ft 5kts
10-Oct-18 14:56 34.214066 -119.096444 263 451ft 69kts
10-Oct-18 14:57 34.217310 -119.118004 272 1614ft 73kts
10-Oct-18 14:58 34.225005 -119.140842 295 2674ft 80kts
10-Oct-18 14:59 34.232749 -119.164658 282 3711ft 74kts
10-Oct-18 15:00 34.239589 -119.189589 281 4615ft 77kts
10-Oct-18 15:01 34.251115 -119.213207 293 5418ft 81kts
10-Oct-18 15:02 34.261510 -119.237378 277 6146ft 77kts
10-Oct-18 15:03 34.274615 -119.260642 287 6763ft 79kts
10-Oct-18 15:04 34.287993 -119.284485 291 7366ft 83kts
10-Oct-18 15:05 34.295866 -119.310527 285 7969ft 84kts
10-Oct-18 15:06 34.307514 -119.335835 298 8007ft 89kts
10-Oct-18 15:07 34.321641 -119.358958 329 8029ft 100kts
10-Oct-18 15:08 34.340641 -119.378692 305 8016ft 91kts
10-Oct-18 15:09 34.350949 -119.404641 283 7998ft 83kts
10-Oct-18 15:10 34.362459 -119.429647 298 7978ft 88kts
10-Oct-18 15:11 34.374893 -119.454446 290 7993ft 84kts
10-Oct-18 15:12 34.386166 -119.479409 290 8018ft 84kts
10-Oct-18 15:13 34.398040 -119.500508 285 8106ft 76kts
10-Oct-18 15:14 34.410194 -119.524781 291 8036ft 86kts
10-Oct-18 15:15 34.421760 -119.550340 289 8039ft 83kts
10-Oct-18 15:16 34.434519 -119.574584 271 7979ft 83kts
10-Oct-18 15:17 34.444816 -119.599901 287 8023ft 79kts
10-Oct-18 15:18 34.451887 -119.625780 294 7974ft 86kts
10-Oct-18 15:19 34.461286 -119.651436 292 7963ft 85kts
10-Oct-18 15:20 34.464952 -119.677016 295 7968ft 82kts
10-Oct-18 15:21 34.475194 -119.696833 288 7952ft 83kts
10-Oct-18 15:22 34.489030 -119.725333 288 7954ft 82kts
10-Oct-18 15:23 34.498879 -119.746021 292 7934ft 85kts
10-Oct-18 15:24 34.509872 -119.770674 286 7779ft 78kts
10-Oct-18 15:25 34.519847 -119.796085 286 7196ft 84kts
10-Oct-18 15:26 34.533459 -119.824842 292 6591ft 84kts
10-Oct-18 15:27 34.542506 -119.843669 287 6351ft 52kts
10-Oct-18 15:28 34.550185 -119.860401 300 6012ft 71kts
10-Oct-18 15:29 34.565921 -119.883051 296 5993ft 101kts
10-Oct-18 15:30 34.581244 -119.912302 293 5950ft 102kts
10-Oct-18 15:45 34.789298 -120.349287 326 6004ft 112kts
10-Oct-18 15:46 34.810559 -120.372867 307 6068ft 101kts
10-Oct-18 15:47 34.833948 -120.402478 315 6008ft 107kts
10-Oct-18 15:48 34.855160 -120.426176 312 6077ft 99kts
10-Oct-18 15:49 34.872098 -120.446267 306 6012ft 106kts
10-Oct-18 15:50 34.892631 -120.470780 307 6018ft 101kts
10-Oct-18 15:51 34.912856 -120.494813 296 6054ft 91kts
10-Oct-18 15:52 34.931939 -120.520527 302 5896ft 104kts
10-Oct-18 15:53 34.951153 -120.545455 314 5836ft 110kts
10-Oct-18 15:54 34.972052 -120.535671 89 5702ft 126kts
10-Oct-18 15:55 34.975931 -120.497290 89 5166ft 113kts
10-Oct-18 15:56 34.979551 -120.458647 90 4198ft 114kts
10-Oct-18 15:57 34.983425 -120.420576 85 3312ft 116kts
10-Oct-18 15:58 34.986064 -120.382897 125 2967ft 115kts
10-Oct-18 15:59 34.975137 -120.388965 284 3130ft 91kts
10-Oct-18 16:00 34.988614 -120.420998 287 3090ft 91kts
10-Oct-18 16:01 34.997317 -120.444498 287 2979ft 93kts
10-Oct-18 16:02 35.008818 -120.472468 299 2908ft 95kts
10-Oct-18 16:03 35.027448 -120.494860 301 3017ft 79kts
10-Oct-18 16:04 35.046142 -120.516590 317 2904ft 99kts
10-Oct-18 16:05 35.065175 -120.539102 316 2924ft 100kts
10-Oct-18 16:06 35.083647 -120.563502 304 2951ft 95kts
10-Oct-18 16:07 35.100915 -120.588341 305 2989ft 95kts
10-Oct-18 16:08 35.119517 -120.611917 303 3007ft 97kts
10-Oct-18 16:09 35.122796 -120.633050 186 2953ft 91kts
10-Oct-18 16:10 35.100121 -120.634299 180 3111ft 86kts
10-Oct-18 16:11 35.078800 -120.614892 166 3075ft 96kts
10-Oct-18 16:12 35.054388 -120.604657 171 3103ft 92kts
10-Oct-18 16:13 35.030751 -120.593851 168 3102ft 95kts
10-Oct-18 16:14 35.007456 -120.579110 159 2892ft 98kts
10-Oct-18 16:15 34.986582 -120.556749 148 2554ft 102kts
10-Oct-18 16:16 34.967830 -120.531962 129 1987ft 104kts
10-Oct-18 16:17 34.948959 -120.512099 143 1432ft 82kts
10-Oct-18 16:18 34.931343 -120.490186 147 1237ft 85kts
10-Oct-18 16:19 34.915470 -120.471722 151 640ft 68kts
10-Oct-18 16:20 34.901983 -120.456588 156 265ft 50kts
10-Oct-18 16:21 34.897091 -120.450918 121 264ft 13kts
10-Oct-18 16:22 34.896986 -120.450088 17 264ft 0kts
10-Oct-18 16:23 34.896986 -120.450088 17 264ft 0kts

Navigation Log

Ident Type
Flight plan parsing failed, navigation log unavailable